Terminal Aerodrome Forecast
Issued by NWS Dodge City, KS

Home | Current Version | Previous Version | Graphics & Text | Print | Product List | Glossary Off
Versions: 1 2 3 4 5 6 7 8 9 10 11 12 13 14 15 16 17 18 19 20 21 22 23 24 25 26 27 28

000
FTUS43 KDDC 142340
TAFDDC
TAF
KDDC 142340Z 1500/1524 VRB05KT 6SM -FZRA BR OVC019
     FM150200 VRB04KT 5SM -FZRA OVC008
     FM150500 VRB04KT 2SM -FZRA OVC003=

USA.gov is the U.S. government's official web portal to all federal, state and local government web resources and services.